Time;durP1;ratioP1;P1;durP2;ratioP2;P2;SDS_P1;SDS_P2;PMS_P1;PMS_P2;Temp;Humidity;BMP_temperature;BMP_pressure;BME280_temperature;BME280_humidity;BME280_pressure;Samples;Min_cycle;Max_cycle;Signal;HPM_P1;HPM_P2
2021/12/09 00:00:59;;;;;;;18.23;10.47;;;;;;;2.09;73.25;97919.63;4986614;28;20225;-76
2021/12/09 00:03:28;;;;;;;19.07;9.37;;;;;;;1.58;74.77;97931.94;5004531;28;20238;-74
2021/12/09 00:05:57;;;;;;;16.60;8.87;;;;;;;1.80;74.85;97935.00;5002103;28;20217;-74
2021/12/09 00:08:27;;;;;;;12.87;8.47;;;;;;;1.85;74.63;97937.97;5003998;28;20588;-74
2021/12/09 00:10:55;;;;;;;18.60;9.40;;;;;;;1.65;74.64;97940.88;5010481;28;20597;-74
2021/12/09 00:13:23;;;;;;;13.37;7.80;;;;;;;1.75;73.85;97924.94;5008528;28;20232;-74
2021/12/09 00:15:50;;;;;;;12.20;7.77;;;;;;;1.59;74.59;97927.53;5007920;28;20242;-75
2021/12/09 00:18:17;;;;;;;15.47;8.50;;;;;;;1.55;74.88;97930.47;5007873;28;20239;-74
2021/12/09 00:20:45;;;;;;;11.13;7.83;;;;;;;1.91;74.26;97930.25;5007692;28;20670;-75
2021/12/09 00:23:12;;;;;;;13.37;8.53;;;;;;;2.12;72.69;97914.03;5009014;28;20713;-75
2021/12/09 00:25:39;;;;;;;13.83;8.37;;;;;;;1.66;74.25;97928.53;5005284;28;20239;-76
2021/12/09 00:28:06;;;;;;;13.37;7.97;;;;;;;1.69;74.38;97933.50;5006820;28;20751;-75
2021/12/09 00:30:35;;;;;;;15.37;9.27;;;;;;;1.69;74.28;97931.69;5006796;28;20226;-76
2021/12/09 00:33:05;;;;;;;14.27;9.20;;;;;;;1.74;73.14;97920.69;5008602;28;20238;-75
2021/12/09 00:35:43;;;;;;;14.70;9.30;;;;;;;1.73;73.96;97942.69;5007132;28;20242;-76
2021/12/09 00:38:19;;;;;;;16.17;9.93;;;;;;;1.18;75.73;97949.97;5005996;28;21015;-76
2021/12/09 00:40:46;;;;;;;16.67;8.43;;;;;;;0.99;76.83;97952.81;5012283;28;20675;-76
2021/12/09 00:43:15;;;;;;;16.23;8.13;;;;;;;0.92;77.18;97954.41;5006729;28;20865;-75
2021/12/09 00:45:41;;;;;;;12.40;8.60;;;;;;;1.38;75.39;97944.47;5004984;28;20230;-76
2021/12/09 00:48:08;;;;;;;15.30;8.73;;;;;;;1.66;73.71;97939.88;5013366;28;20232;-76
2021/12/09 00:50:37;;;;;;;13.00;8.07;;;;;;;1.47;74.29;97954.09;5025644;28;20235;-75
2021/12/09 00:53:04;;;;;;;13.07;7.70;;;;;;;1.75;73.14;97952.06;5025498;28;20310;-75
2021/12/09 00:55:31;;;;;;;11.50;7.10;;;;;;;1.48;73.67;97966.25;5026206;28;20234;-75
2021/12/09 00:57:58;;;;;;;11.93;7.13;;;;;;;2.06;71.53;97948.06;5027849;28;20224;-76
2021/12/09 01:00:25;;;;;;;10.20;6.67;;;;;;;1.46;73.09;97962.94;5027633;28;20228;-75
2021/12/09 01:02:52;;;;;;;8.03;6.50;;;;;;;2.09;71.70;97947.69;5025894;28;20224;-75
2021/12/09 01:05:19;;;;;;;14.90;7.80;;;;;;;1.75;72.41;97959.13;4997605;28;20365;-75
2021/12/09 01:07:46;;;;;;;11.70;7.57;;;;;;;1.59;72.50;97957.28;5006898;28;20239;-76
2021/12/09 01:10:15;;;;;;;13.40;7.43;;;;;;;1.59;73.59;97975.66;5008900;28;20239;-75
2021/12/09 01:12:43;;;;;;;14.43;7.40;;;;;;;1.94;71.28;97955.41;4990001;28;20617;-76
2021/12/09 01:15:12;;;;;;;11.47;7.40;;;;;;;1.42;72.44;97972.09;5019838;28;20228;-75
2021/12/09 01:17:39;;;;;;;9.83;7.67;;;;;;;1.69;71.96;97972.91;5028291;28;20229;-76
2021/12/09 01:20:08;;;;;;;11.73;7.13;;;;;;;0.81;73.95;97990.44;5025871;28;20236;-76
2021/12/09 01:22:42;;;;;;;11.63;7.37;;;;;;;1.45;72.00;97973.63;5024948;28;20228;-75
2021/12/09 01:25:13;;;;;;;10.27;6.80;;;;;;;1.48;73.07;97989.06;5025253;28;20238;-76
2021/12/09 01:27:43;;;;;;;11.70;7.03;;;;;;;1.00;74.36;97988.59;5026502;28;20246;-76
2021/12/09 01:30:15;;;;;;;17.07;11.63;;;;;;;0.82;74.66;97991.25;5026753;28;20231;-76
2021/12/09 01:32:49;;;;;;;15.70;8.63;;;;;;;1.15;74.92;97994.13;5026035;28;20279;-76
2021/12/09 01:35:20;;;;;;;11.97;6.67;;;;;;;1.19;74.42;97988.38;5018276;28;20547;-75
2021/12/09 01:37:52;;;;;;;9.63;6.57;;;;;;;1.40;73.23;97979.31;4999136;28;20232;-76
2021/12/09 01:40:20;;;;;;;11.80;6.70;;;;;;;1.11;73.68;97988.34;5007072;28;20240;-75
2021/12/09 01:42:47;;;;;;;11.67;5.60;;;;;;;0.85;74.80;97995.38;4997360;28;20225;-75
2021/12/09 01:45:14;;;;;;;10.60;5.87;;;;;;;0.73;74.55;97989.56;5005021;28;20252;-75
2021/12/09 01:47:41;;;;;;;8.90;5.90;;;;;;;1.55;73.00;97998.00;5006427;28;20240;-75
2021/12/09 01:50:10;;;;;;;12.67;5.93;;;;;;;1.09;74.37;98007.84;5004997;28;20228;-75
2021/12/09 01:52:37;;;;;;;7.80;5.80;;;;;;;0.98;73.96;98006.31;5006207;28;20273;-75
2021/12/09 01:55:06;;;;;;;11.73;6.30;;;;;;;1.20;74.07;98010.25;5004464;28;20220;-75
2021/12/09 01:57:33;;;;;;;9.33;5.30;;;;;;;1.61;73.06;98021.00;5001230;28;20243;-75
2021/12/09 02:00:02;;;;;;;12.00;6.20;;;;;;;1.37;73.75;98019.03;5006644;28;20232;-75
2021/12/09 02:02:29;;;;;;;10.30;5.50;;;;;;;0.97;73.54;98010.72;4998456;28;20223;-75
2021/12/09 02:05:17;;;;;;;8.33;5.07;;;;;;;0.67;76.22;98024.25;5006109;28;22156;-75
2021/12/09 02:07:44;;;;;;;9.37;5.83;;;;;;;1.55;73.37;98004.06;5003466;28;20886;-75
2021/12/09 02:10:16;;;;;;;11.10;6.03;;;;;;;1.24;73.24;98001.06;5009096;28;20229;-75
2021/12/09 02:12:46;;;;;;;10.73;6.13;;;;;;;1.18;73.90;97999.06;5004858;28;21008;-75
2021/12/09 02:15:14;;;;;;;8.33;5.50;;;;;;;1.79;71.16;97985.94;5004100;28;20637;-75
2021/12/09 02:17:41;;;;;;;9.10;5.43;;;;;;;1.12;73.31;97989.19;5006698;28;20225;-75
2021/12/09 02:20:09;;;;;;;11.03;5.60;;;;;;;1.68;71.31;97979.97;5004276;28;20230;-75
2021/12/09 02:22:36;;;;;;;13.93;5.53;;;;;;;1.44;72.72;97990.38;5005272;28;21001;-75
2021/12/09 02:25:04;;;;;;;13.53;5.67;;;;;;;1.19;73.57;97991.00;5006045;28;20237;-75
2021/12/09 02:27:31;;;;;;;10.30;5.40;;;;;;;1.77;71.01;97980.84;5005813;28;20586;-75
2021/12/09 02:29:58;;;;;;;11.43;5.37;;;;;;;2.01;70.39;97980.09;5005765;28;20600;-75
2021/12/09 02:32:25;;;;;;;12.53;6.07;;;;;;;0.70;73.90;97989.84;5004291;28;20232;-75
2021/12/09 02:34:52;;;;;;;9.17;5.60;;;;;;;1.01;74.45;98009.47;5005381;28;20227;-75
2021/12/09 02:37:19;;;;;;;9.63;5.80;;;;;;;1.63;72.56;97998.00;5005777;28;20231;-75
2021/12/09 02:39:46;;;;;;;11.13;5.80;;;;;;;1.78;70.95;97987.72;5014861;28;20232;-75
2021/12/09 02:42:13;;;;;;;10.90;5.50;;;;;;;1.10;72.73;98002.44;5025628;28;20230;-75
2021/12/09 02:44:40;;;;;;;9.53;5.37;;;;;;;2.25;69.92;97995.09;5024199;28;20242;-75
2021/12/09 02:47:07;;;;;;;12.73;5.80;;;;;;;2.76;67.89;97994.16;5015497;28;20608;-75
2021/12/09 02:49:34;;;;;;;8.23;5.30;;;;;;;2.77;67.90;97993.19;5020648;28;20238;-75
2021/12/09 02:52:03;;;;;;;9.20;4.90;;;;;;;1.73;71.36;98011.84;5026206;28;20217;-75
2021/12/09 02:54:31;;;;;;;7.83;4.80;;;;;;;1.45;72.43;98026.16;5013308;28;20224;-75
2021/12/09 02:57:02;;;;;;;9.93;5.20;;;;;;;1.57;72.14;98028.38;4986624;28;20234;-75
2021/12/09 02:59:31;;;;;;;5.50;4.37;;;;;;;0.99;74.00;98037.69;5006528;28;20755;-75
2021/12/09 03:02:01;;;;;;;10.53;5.17;;;;;;;1.36;72.96;98039.25;5004051;28;20284;-75
2021/12/09 03:04:51;;;;;;;12.67;5.10;;;;;;;1.24;73.30;98037.03;5002694;28;20616;-75
2021/12/09 03:07:30;;;;;;;8.40;4.93;;;;;;;1.97;70.42;98028.72;5003062;28;20536;-75
2021/12/09 03:10:01;;;;;;;11.23;5.40;;;;;;;-0.96;80.12;98066.69;5009615;28;20617;-75
2021/12/09 03:12:35;;;;;;;12.80;5.90;;;;;;;-1.28;83.36;98076.41;5004579;28;20239;-75
2021/12/09 03:15:04;;;;;;;7.10;5.30;;;;;;;-1.06;83.89;98091.03;5004916;28;20763;-75
2021/12/09 03:17:31;;;;;;;10.23;5.47;;;;;;;-0.42;83.31;98074.84;5004959;28;20224;-75
2021/12/09 03:19:58;;;;;;;10.63;6.43;;;;;;;-1.02;83.90;98083.75;5005697;28;20221;-75
2021/12/09 03:22:25;;;;;;;11.33;7.17;;;;;;;-0.63;80.72;98061.94;5003561;28;20764;-75
2021/12/09 03:24:53;;;;;;;12.90;7.63;;;;;;;-0.84;82.60;98078.66;5003217;28;20228;-74
2021/12/09 03:27:20;;;;;;;13.03;7.17;;;;;;;-0.79;84.50;98086.91;5005163;28;20943;-75
2021/12/09 03:29:46;;;;;;;13.13;7.57;;;;;;;0.37;79.81;98071.72;5009561;28;20614;-75
2021/12/09 03:32:17;;;;;;;14.00;6.40;;;;;;;1.11;75.72;98056.63;5003634;28;20230;-75
2021/12/09 03:34:45;;;;;;;10.90;7.27;;;;;;;1.90;71.96;98039.06;4997928;28;20483;-75
2021/12/09 03:37:16;;;;;;;15.07;7.30;;;;;;;1.93;71.18;98037.91;5021301;28;20228;-75
2021/12/09 03:39:44;;;;;;;12.87;6.90;;;;;;;2.09;70.42;98042.38;5022424;28;20240;-76
2021/12/09 03:42:14;;;;;;;14.93;8.03;;;;;;;1.81;71.27;98054.97;5005502;28;20227;-76
2021/12/09 03:44:44;;;;;;;14.43;6.90;;;;;;;1.94;71.05;98052.72;5004394;28;20224;-75
2021/12/09 03:47:14;;;;;;;11.50;6.87;;;;;;;1.84;71.59;98062.53;5001239;28;20239;-76
2021/12/09 03:49:42;;;;;;;12.53;7.57;;;;;;;1.81;71.58;98060.22;4990801;28;20232;-76
2021/12/09 03:52:11;;;;;;;16.23;8.40;;;;;;;1.33;71.20;98062.34;5024935;23;20462;-65
2021/12/09 03:54:38;;;;;;;12.27;7.73;;;;;;;1.99;70.55;98065.38;5058614;28;20591;-65
2021/12/09 03:57:07;;;;;;;12.40;7.23;;;;;;;1.67;71.07;98069.50;5033486;28;20230;-65
2021/12/09 03:59:34;;;;;;;18.60;8.63;;;;;;;1.38;71.50;98067.97;5032163;28;20634;-66
2021/12/09 04:02:02;;;;;;;15.57;7.50;;;;;;;0.83;74.10;98087.41;5030669;28;20236;-65
2021/12/09 04:04:29;;;;;;;9.97;7.07;;;;;;;1.55;72.38;98085.53;5049406;28;20214;-64
2021/12/09 04:06:56;;;;;;;12.73;8.17;;;;;;;0.68;73.48;98083.66;5031717;28;20212;-65
2021/12/09 04:09:24;;;;;;;14.87;7.93;;;;;;;0.53;75.77;98110.41;5027168;28;20228;-65
2021/12/09 04:11:52;;;;;;;18.33;8.57;;;;;;;1.02;73.37;98091.66;5022480;28;20623;-65
2021/12/09 04:14:20;;;;;;;15.30;9.80;;;;;;;0.59;74.37;98091.44;5029642;28;20254;-65
2021/12/09 04:16:47;;;;;;;16.13;7.67;;;;;;;-0.16;77.95;98106.47;5028328;28;20220;-66
2021/12/09 04:19:15;;;;;;;16.97;7.80;;;;;;;-0.26;78.12;98103.06;5035247;28;20238;-65
2021/12/09 04:21:43;;;;;;;12.90;7.23;;;;;;;0.28;75.93;98082.25;5049853;28;20753;-65
2021/12/09 04:24:13;;;;;;;11.20;7.23;;;;;;;0.87;74.76;98082.69;5043711;28;20784;-65
2021/12/09 04:26:46;;;;;;;16.43;8.03;;;;;;;0.87;74.18;98083.50;5047867;28;20234;-65
2021/12/09 04:29:13;;;;;;;15.57;7.23;;;;;;;1.04;73.20;98084.47;5041870;28;20683;-65
2021/12/09 04:31:42;;;;;;;11.17;7.20;;;;;;;1.16;72.12;98077.16;5038584;28;20614;-65
2021/12/09 04:34:10;;;;;;;10.30;7.43;;;;;;;1.17;72.52;98094.59;5037612;28;20226;-65
2021/12/09 04:36:38;;;;;;;15.43;8.13;;;;;;;1.27;72.12;98086.63;5047460;28;20246;-71
2021/12/09 04:39:06;;;;;;;14.57;7.87;;;;;;;0.90;73.25;98096.34;5043731;28;20230;-69
2021/12/09 04:41:33;;;;;;;12.60;6.80;;;;;;;0.94;72.85;98091.59;5040687;28;20262;-68
2021/12/09 04:44:00;;;;;;;16.17;7.60;;;;;;;0.68;73.89;98104.66;5053231;28;20227;-66
2021/12/09 04:46:27;;;;;;;12.93;7.77;;;;;;;0.57;74.04;98105.69;5045231;28;20231;-65
2021/12/09 04:48:54;;;;;;;12.13;7.73;;;;;;;1.06;73.52;98114.03;5060561;28;20671;-66
2021/12/09 04:51:21;;;;;;;14.27;7.60;;;;;;;1.33;71.85;98094.72;5057815;28;20228;-66
2021/12/09 04:53:48;;;;;;;15.67;7.83;;;;;;;0.97;71.82;98099.19;5040339;28;20224;-65
2021/12/09 04:56:15;;;;;;;13.67;7.90;;;;;;;0.62;73.85;98116.56;5042795;28;20747;-66
2021/12/09 04:58:42;;;;;;;12.43;6.97;;;;;;;0.56;74.13;98119.78;5049767;28;20634;-66
2021/12/09 05:05:13;;;;;;;9.90;7.30;;;;;;;-1.13;80.12;98121.31;5091219;28;20697;-65
2021/12/09 05:07:40;;;;;;;13.60;8.20;;;;;;;-0.35;77.95;98112.59;5106399;28;20234;-65
2021/12/09 05:10:07;;;;;;;13.10;7.60;;;;;;;-0.32;77.18;98115.75;5107657;28;20221;-65
2021/12/09 05:12:34;;;;;;;14.63;7.53;;;;;;;-0.40;77.94;98117.44;5104061;28;20228;-65
2021/12/09 05:15:08;;;;;;;11.77;6.80;;;;;;;0.67;73.66;98108.25;5103238;28;20244;-65
2021/12/09 05:17:35;;;;;;;10.43;6.73;;;;;;;0.63;72.97;98103.28;5085580;28;20235;-65
2021/12/09 05:20:05;;;;;;;14.27;7.13;;;;;;;0.83;72.68;98109.22;5104151;28;20225;-66
2021/12/09 05:22:32;;;;;;;12.97;7.40;;;;;;;-0.01;75.38;98131.22;5103950;28;20236;-65
2021/12/09 05:24:59;;;;;;;11.33;7.53;;;;;;;0.44;74.71;98135.72;5103525;28;20244;-65
2021/12/09 05:27:26;;;;;;;10.37;7.57;;;;;;;0.60;73.74;98121.94;5086409;28;20221;-66
2021/12/09 05:30:04;;;;;;;12.87;7.07;;;;;;;0.39;74.24;98122.22;5086360;28;20217;-64
2021/12/09 05:32:31;;;;;;;13.80;7.30;;;;;;;1.23;72.10;98125.50;5084654;28;20218;-65
2021/12/09 05:34:59;;;;;;;11.90;6.80;;;;;;;1.37;71.57;98113.63;5098546;28;20221;-65
2021/12/09 05:37:27;;;;;;;9.80;6.97;;;;;;;1.39;71.04;98111.66;5065505;28;20604;-65
2021/12/09 05:39:56;;;;;;;12.60;6.83;;;;;;;1.37;70.61;98105.75;5099559;28;20221;-65
2021/12/09 05:42:29;;;;;;;11.10;6.00;;;;;;;0.10;73.75;98121.53;5102482;28;20225;-65
2021/12/09 05:44:57;;;;;;;12.63;8.47;;;;;;;-1.63;81.36;98152.75;5101022;28;20239;-64
2021/12/09 05:47:24;;;;;;;12.17;7.30;;;;;;;-2.07;84.35;98167.84;5096670;28;20769;-65
2021/12/09 05:49:53;;;;;;;11.03;7.30;;;;;;;0.10;78.47;98137.25;5103124;28;20731;-65
2021/12/09 05:52:20;;;;;;;8.93;6.50;;;;;;;0.60;73.69;98110.63;5076692;28;20231;-62
2021/12/09 05:54:47;;;;;;;8.73;6.00;;;;;;;-0.69;80.64;98154.97;5110423;28;20232;-62
2021/12/09 05:57:14;;;;;;;10.03;6.70;;;;;;;0.34;76.36;98140.19;5103788;28;20698;-62
2021/12/09 05:59:42;;;;;;;18.27;9.00;;;;;;;0.46;74.81;98132.97;5103876;28;20225;-62
2021/12/09 06:02:11;;;;;;;13.50;8.77;;;;;;;1.07;72.64;98125.38;5103484;28;20231;-62
2021/12/09 06:04:39;;;;;;;15.33;8.60;;;;;;;-0.43;77.92;98159.63;5102606;28;20233;-62
2021/12/09 06:07:06;;;;;;;12.27;7.47;;;;;;;-0.93;78.33;98153.59;5084704;28;20247;-62
2021/12/09 06:09:33;;;;;;;11.40;8.33;;;;;;;-1.79;83.84;98190.69;5088387;28;20224;-62
2021/12/09 06:12:00;;;;;;;12.73;8.07;;;;;;;-1.64;85.46;98199.00;5101648;28;20231;-62
2021/12/09 06:14:27;;;;;;;12.37;8.23;;;;;;;-0.93;82.60;98192.03;5088908;28;20234;-62
2021/12/09 06:16:54;;;;;;;11.97;8.17;;;;;;;-1.05;83.63;98189.53;5089463;28;20256;-61
2021/12/09 06:19:22;;;;;;;13.70;8.87;;;;;;;-0.23;80.37;98178.78;5089400;28;20221;-62
2021/12/09 06:21:49;;;;;;;12.67;9.07;;;;;;;0.54;76.08;98153.19;5081265;28;20221;-62
2021/12/09 06:24:21;;;;;;;14.60;9.93;;;;;;;0.57;75.30;98160.78;5083636;28;20226;-60
2021/12/09 06:26:48;;;;;;;19.43;10.77;;;;;;;0.56;73.87;98148.66;5084518;28;20591;-62
2021/12/09 06:29:15;;;;;;;14.60;9.70;;;;;;;0.27;75.65;98181.09;5089373;28;20224;-62
2021/12/09 06:31:42;;;;;;;15.10;10.00;;;;;;;0.51;75.69;98172.69;5089239;28;20225;-62
2021/12/09 06:34:11;;;;;;;15.37;9.60;;;;;;;0.45;75.10;98178.53;5089963;28;20215;-62
2021/12/09 06:36:40;;;;;;;16.60;10.07;;;;;;;0.47;76.06;98183.63;5088014;28;20219;-62
2021/12/09 06:39:08;;;;;;;15.90;10.47;;;;;;;0.75;75.65;98173.94;5092793;28;20724;-62
2021/12/09 06:41:35;;;;;;;17.20;11.77;;;;;;;0.28;75.13;98176.69;5072372;28;20604;-62
2021/12/09 06:44:03;;;;;;;15.27;11.37;;;;;;;0.73;75.17;98174.09;5089522;28;20233;-62
2021/12/09 06:46:30;;;;;;;17.90;11.03;;;;;;;0.36;76.30;98195.16;5088130;28;20225;-62
2021/12/09 06:48:57;;;;;;;20.03;12.00;;;;;;;1.19;74.00;98188.00;5088603;28;20743;-62
2021/12/09 06:51:25;;;;;;;13.80;11.07;;;;;;;0.80;74.48;98182.22;5089119;28;20225;-62
2021/12/09 06:53:51;;;;;;;18.80;11.43;;;;;;;1.35;72.95;98174.19;5089020;28;20239;-62
2021/12/09 06:56:19;;;;;;;17.67;11.10;;;;;;;0.26;77.46;98197.78;5088304;28;20900;-62
2021/12/09 06:58:46;;;;;;;13.63;10.77;;;;;;;1.00;74.58;98182.91;5069556;28;20648;-61
2021/12/09 07:01:14;;;;;;;16.63;10.87;;;;;;;0.83;75.19;98179.28;5088279;28;20641;-63
2021/12/09 07:03:42;;;;;;;15.57;10.10;;;;;;;1.02;74.13;98181.78;5088449;28;20335;-62
2021/12/09 07:06:11;;;;;;;14.73;10.83;;;;;;;1.85;71.34;98182.47;5088467;28;20222;-62
2021/12/09 07:08:47;;;;;;;17.43;11.30;;;;;;;1.05;73.01;98182.47;5076755;28;20752;-62
2021/12/09 07:11:18;;;;;;;18.93;11.03;;;;;;;1.04;73.98;98193.94;5058834;28;21619;-62
2021/12/09 07:13:47;;;;;;;18.00;10.50;;;;;;;0.71;75.80;98199.66;5078288;28;20248;-62
2021/12/09 07:16:14;;;;;;;23.27;11.27;;;;;;;0.89;74.01;98191.84;5066005;28;20225;-62
2021/12/09 07:18:41;;;;;;;17.07;12.17;;;;;;;0.67;75.36;98198.28;5066957;28;20856;-63
2021/12/09 07:21:09;;;;;;;15.00;11.33;;;;;;;1.37;72.92;98185.38;5068462;28;20232;-62
2021/12/09 07:23:36;;;;;;;17.00;10.30;;;;;;;0.63;74.95;98183.81;5067855;28;20248;-62
2021/12/09 07:26:03;;;;;;;18.27;11.80;;;;;;;1.24;73.81;98200.69;5067592;28;20218;-62
2021/12/09 07:28:31;;;;;;;16.77;10.97;;;;;;;1.31;73.42;98190.41;5066651;28;20218;-62
2021/12/09 07:30:58;;;;;;;20.20;10.80;;;;;;;0.98;74.98;98217.19;5068003;28;20226;-62
2021/12/09 07:33:25;;;;;;;17.63;12.40;;;;;;;1.46;72.60;98199.44;5067852;28;20236;-62
2021/12/09 07:35:52;;;;;;;17.20;11.43;;;;;;;1.89;71.61;98205.69;5067873;28;20226;-62
2021/12/09 07:38:20;;;;;;;16.80;10.87;;;;;;;1.80;72.25;98208.41;5067851;28;20257;-61
2021/12/09 07:40:48;;;;;;;17.03;11.37;;;;;;;1.57;72.58;98195.78;5071138;28;20215;-62
2021/12/09 07:43:15;;;;;;;20.00;12.77;;;;;;;1.08;74.09;98211.88;5067574;28;20227;-62
2021/12/09 07:45:42;;;;;;;18.47;12.40;;;;;;;0.70;75.86;98215.56;5065415;28;20723;-62
2021/12/09 07:48:09;;;;;;;17.30;11.47;;;;;;;0.92;75.33;98219.59;5068235;28;20601;-62
2021/12/09 07:50:36;;;;;;;16.80;10.63;;;;;;;1.07;74.47;98215.47;5067702;28;20227;-62
2021/12/09 07:53:03;;;;;;;20.57;11.50;;;;;;;0.55;76.17;98226.53;5067488;28;20227;-62
2021/12/09 07:55:30;;;;;;;26.23;13.37;;;;;;;1.00;74.46;98215.22;5066093;28;20222;-62
2021/12/09 07:57:57;;;;;;;21.87;12.70;;;;;;;1.02;74.85;98233.47;5067024;28;20223;-62
2021/12/09 08:00:28;;;;;;;16.57;9.83;;;;;;;0.54;75.61;98230.13;5066881;28;20226;-62
2021/12/09 08:02:56;;;;;;;16.57;10.53;;;;;;;0.68;76.67;98244.56;5066908;28;20474;-61
2021/12/09 08:05:25;;;;;;;15.20;10.20;;;;;;;0.03;78.56;98240.09;5067386;28;20226;-62
2021/12/09 08:07:53;;;;;;;14.77;10.50;;;;;;;0.52;77.81;98239.13;5067714;28;20211;-62
2021/12/09 08:10:22;;;;;;;14.10;9.50;;;;;;;-0.49;80.33;98240.44;5073910;28;20233;-60
2021/12/09 08:12:50;;;;;;;11.87;9.23;;;;;;;0.18;78.33;98243.09;5059158;28;20706;-61
2021/12/09 08:15:34;;;;;;;13.00;9.50;;;;;;;0.48;78.13;98250.88;5065478;28;20222;-62
2021/12/09 08:18:04;;;;;;;13.07;10.10;;;;;;;0.24;78.40;98244.34;5065691;28;20611;-62
2021/12/09 08:20:32;;;;;;;14.90;9.37;;;;;;;0.69;77.29;98240.13;5065006;28;20221;-62
2021/12/09 08:22:59;;;;;;;13.80;10.03;;;;;;;-0.05;79.06;98253.09;5066798;28;20602;-62
2021/12/09 08:25:26;;;;;;;17.30;10.07;;;;;;;0.30;78.79;98258.66;5066924;28;20230;-62
2021/12/09 08:27:53;;;;;;;11.50;9.10;;;;;;;0.16;78.98;98262.56;5067069;28;20218;-61
2021/12/09 08:30:25;;;;;;;15.63;9.83;;;;;;;0.30;78.35;98259.47;5067181;28;20218;-61
2021/12/09 08:33:12;;;;;;;13.80;8.90;;;;;;;0.33;78.61;98271.50;5065427;28;20275;-62
2021/12/09 08:35:39;;;;;;;14.93;9.77;;;;;;;0.06;79.15;98276.50;5058236;28;20226;-62
2021/12/09 08:38:07;;;;;;;13.23;10.10;;;;;;;0.44;78.56;98287.06;5066676;28;20615;-62
2021/12/09 08:40:35;;;;;;;15.83;9.67;;;;;;;0.67;77.71;98300.66;5071009;28;20229;-62
2021/12/09 08:43:03;;;;;;;16.17;9.73;;;;;;;0.12;78.80;98292.66;5066638;28;20228;-62
2021/12/09 08:45:30;;;;;;;16.67;10.17;;;;;;;0.41;79.04;98305.72;5066467;28;20263;-62
2021/12/09 08:47:57;;;;;;;15.33;9.13;;;;;;;0.03;79.67;98302.19;5066844;28;20225;-62
2021/12/09 08:50:32;;;;;;;14.67;8.73;;;;;;;0.54;78.08;98300.13;5065808;28;20221;-62
2021/12/09 08:53:04;;;;;;;14.10;8.17;;;;;;;0.21;77.64;98286.56;5065315;28;20238;-62
2021/12/09 08:55:31;;;;;;;17.47;9.10;;;;;;;0.45;77.97;98294.81;5066344;28;20249;-62
2021/12/09 08:57:58;;;;;;;13.50;8.80;;;;;;;0.00;79.17;98305.94;5067284;28;20222;-62
2021/12/09 09:00:26;;;;;;;13.83;8.93;;;;;;;0.18;78.32;98311.25;5047850;28;20223;-62
2021/12/09 09:02:56;;;;;;;12.47;7.73;;;;;;;-0.01;79.29;98312.13;5066807;28;20748;-63
2021/12/09 09:05:24;;;;;;;13.63;8.37;;;;;;;-0.11;79.15;98317.38;5066852;28;20744;-62
2021/12/09 09:07:52;;;;;;;16.33;9.27;;;;;;;0.42;77.85;98312.59;5060668;28;20219;-62
2021/12/09 09:10:22;;;;;;;11.07;8.93;;;;;;;0.67;76.71;98312.94;5066155;28;20222;-63
2021/12/09 09:12:50;;;;;;;13.23;9.23;;;;;;;1.16;75.14;98319.66;5055635;28;20685;-62
2021/12/09 09:15:19;;;;;;;13.77;8.73;;;;;;;1.05;75.36;98319.84;5065233;28;20603;-62
2021/12/09 09:17:47;;;;;;;13.23;8.70;;;;;;;0.71;76.34;98328.28;5066555;28;20224;-63
2021/12/09 09:20:16;;;;;;;15.73;9.63;;;;;;;1.33;75.01;98327.69;5048551;28;20558;-62
2021/12/09 09:22:44;;;;;;;14.03;9.40;;;;;;;1.54;74.06;98324.84;5065739;28;20226;-62
2021/12/09 09:25:17;;;;;;;15.87;9.40;;;;;;;0.92;75.18;98316.72;5065398;28;20241;-63
2021/12/09 09:27:45;;;;;;;13.10;9.50;;;;;;;0.57;76.58;98328.72;5065121;28;20288;-62
2021/12/09 09:30:17;;;;;;;15.93;10.07;;;;;;;1.78;73.75;98328.69;5066554;28;20226;-62
2021/12/09 09:32:49;;;;;;;16.67;10.03;;;;;;;1.15;75.12;98328.50;5066403;28;20279;-62
2021/12/09 09:35:17;;;;;;;15.83;9.27;;;;;;;1.29;74.78;98328.97;5061281;28;20272;-62
2021/12/09 09:37:47;;;;;;;17.77;10.67;;;;;;;1.33;74.05;98320.66;5060363;28;20223;-62
2021/12/09 09:40:27;;;;;;;14.20;10.33;;;;;;;1.00;75.46;98319.47;5070854;28;20216;-62
2021/12/09 09:43:02;;;;;;;13.27;9.53;;;;;;;1.24;74.84;98323.34;5065143;28;21630;-63
2021/12/09 09:45:31;;;;;;;14.80;9.53;;;;;;;1.62;73.88;98345.13;5064881;28;20222;-63
2021/12/09 09:47:58;;;;;;;14.97;8.57;;;;;;;1.43;74.22;98333.75;5067341;28;20223;-63
2021/12/09 09:50:25;;;;;;;10.47;7.77;;;;;;;0.89;75.92;98343.25;5069523;28;20215;-63
2021/12/09 09:52:53;;;;;;;11.33;7.30;;;;;;;0.51;75.97;98347.69;5069735;28;20256;-62
2021/12/09 09:55:21;;;;;;;13.30;7.07;;;;;;;1.04;75.94;98347.06;5067862;28;20233;-62
2021/12/09 09:57:50;;;;;;;9.93;6.97;;;;;;;0.99;75.07;98344.91;5069004;28;20231;-63
2021/12/09 10:00:21;;;;;;;12.67;6.93;;;;;;;0.73;76.48;98352.56;5069889;28;20707;-62
2021/12/09 10:02:53;;;;;;;8.90;6.93;;;;;;;0.71;76.03;98337.97;5060619;28;20654;-62
2021/12/09 10:05:33;;;;;;;11.43;7.60;;;;;;;0.69;76.16;98343.34;5068040;28;20726;-62
2021/12/09 10:08:00;;;;;;;13.20;7.27;;;;;;;0.42;77.84;98355.44;5070087;28;20601;-63
2021/12/09 10:10:27;;;;;;;10.13;6.80;;;;;;;0.25;77.76;98349.09;5072263;28;20727;-62
2021/12/09 10:13:06;;;;;;;11.20;6.87;;;;;;;1.01;76.27;98350.81;5060516;28;20230;-62
2021/12/09 10:15:40;;;;;;;12.53;6.90;;;;;;;1.31;75.08;98342.78;5067375;28;20231;-63
2021/12/09 10:18:08;;;;;;;12.10;7.27;;;;;;;1.00;75.75;98337.84;5067378;28;20221;-63
2021/12/09 10:20:48;;;;;;;13.17;7.20;;;;;;;1.26;75.22;98329.28;5068173;28;20235;-63
2021/12/09 10:23:24;;;;;;;14.83;6.73;;;;;;;1.08;75.77;98324.81;5072049;28;20599;-62
2021/12/09 10:26:24;;;;;;;12.73;7.03;;;;;;;0.22;78.45;98351.19;5068684;28;20218;-62
2021/12/09 10:29:05;;;;;;;10.17;6.70;;;;;;;0.67;77.40;98347.88;5058443;28;20494;-63
2021/12/09 10:31:46;;;;;;;17.27;7.33;;;;;;;1.22;75.47;98347.13;5069813;28;20226;-62
2021/12/09 10:37:22;;;;;;;13.17;6.47;;;;;;;0.73;77.08;98352.56;5058691;28;20219;-62
2021/12/09 10:39:51;;;;;;;9.80;7.17;;;;;;;1.38;75.02;98347.31;5073867;28;20253;-62
2021/12/09 10:42:24;;;;;;;9.43;5.63;;;;;;;0.92;75.72;98329.84;5069021;28;20600;-62
2021/12/09 10:44:53;;;;;;;14.60;6.27;;;;;;;0.91;76.68;98333.44;5064689;28;22192;-62
2021/12/09 10:50:25;;;;;;;14.73;6.93;;;;;;;1.17;76.12;98328.34;5059480;28;20219;-62
2021/12/09 10:53:05;;;;;;;10.77;6.67;;;;;;;1.70;74.56;98339.94;5057059;28;21528;-62
2021/12/09 10:55:37;;;;;;;23.87;13.03;;;;;;;1.83;73.50;98334.31;5067076;28;20231;-62
2021/12/09 10:58:09;;;;;;;13.93;9.23;;;;;;;1.23;74.62;98319.91;5068834;28;20215;-62
2021/12/09 11:03:53;;;;;;;12.37;6.60;;;;;;;0.08;79.20;98324.41;5055156;27;20572;-64
2021/12/09 11:06:22;;;;;;;25.27;14.30;;;;;;;0.68;78.03;98312.81;5024220;28;20224;-64
2021/12/09 11:08:52;;;;;;;15.27;8.47;;;;;;;0.41;78.38;98316.22;5032872;28;20616;-65
2021/12/09 11:11:41;;;;;;;26.17;15.50;;;;;;;0.82;77.17;98303.63;5059409;28;20234;-64
2021/12/09 11:14:17;;;;;;;16.30;8.57;;;;;;;1.03;76.89;98308.66;5064787;28;20838;-65
2021/12/09 11:16:50;;;;;;;16.33;8.67;;;;;;;1.09;76.10;98315.94;5045036;28;20266;-64
2021/12/09 11:19:48;;;;;;;16.80;7.70;;;;;;;0.77;77.38;98308.50;5013584;28;20719;-65
2021/12/09 11:22:18;;;;;;;15.23;7.53;;;;;;;0.71;77.21;98309.91;5053055;28;20232;-64
2021/12/09 11:24:56;;;;;;;17.33;11.57;;;;;;;0.89;76.60;98301.25;5063533;28;21417;-64
2021/12/09 11:27:25;;;;;;;14.87;7.37;;;;;;;0.45;76.75;98300.06;5062628;28;20625;-64
2021/12/09 11:29:56;;;;;;;8.70;5.60;;;;;;;0.63;76.68;98315.03;5064002;28;20219;-64
2021/12/09 11:32:38;;;;;;;11.53;6.57;;;;;;;1.49;75.16;98317.41;5062474;28;20628;-64
2021/12/09 11:35:12;;;;;;;7.80;5.87;;;;;;;0.60;76.73;98313.50;5058210;28;20219;-64
2021/12/09 11:37:55;;;;;;;10.77;6.13;;;;;;;0.89;76.66;98314.38;5046403;28;20226;-65
2021/12/09 11:40:45;;;;;;;7.67;5.07;;;;;;;1.09;76.65;98317.75;5033876;28;20218;-64
2021/12/09 11:43:22;;;;;;;14.10;5.50;;;;;;;0.67;75.89;98305.06;5019582;28;20224;-64
2021/12/09 11:45:51;;;;;;;11.47;4.60;;;;;;;0.86;76.13;98310.25;5033810;28;20230;-64
2021/12/09 11:48:17;;;;;;;7.70;5.00;;;;;;;0.89;74.60;98296.84;5046384;28;20216;-65
2021/12/09 11:50:50;;;;;;;11.40;5.43;;;;;;;1.29;74.03;98314.03;5051936;28;20248;-64
2021/12/09 11:53:21;;;;;;;10.30;4.50;;;;;;;0.97;74.67;98296.09;5058713;28;20628;-64
2021/12/09 11:56:01;;;;;;;8.57;5.00;;;;;;;0.94;74.71;98296.41;5044734;28;20227;-64